createdAt,value
2017-10-17T00:02:13.612Z,77.90
2017-10-17T00:04:41.961Z,79.70
2017-10-17T00:07:09.452Z,79.70
2017-10-17T00:09:36.984Z,79.40
2017-10-17T00:12:04.508Z,79.00
2017-10-17T00:14:32.032Z,78.60
2017-10-17T00:16:59.556Z,78.90
2017-10-17T00:19:27.070Z,79.60
2017-10-17T00:21:54.596Z,79.60
2017-10-17T00:24:22.868Z,80.40
2017-10-17T00:26:51.164Z,80.80
2017-10-17T00:29:18.678Z,80.80
2017-10-17T00:31:46.197Z,80.80
2017-10-17T00:34:13.734Z,80.10
2017-10-17T00:36:41.243Z,79.60
2017-10-17T00:39:08.783Z,79.40
2017-10-17T00:41:36.281Z,79.70
2017-10-17T00:44:04.580Z,80.30
2017-10-17T00:46:32.220Z,80.20
2017-10-17T00:49:00.501Z,79.70
2017-10-17T00:51:28.997Z,79.70
2017-10-17T00:53:58.183Z,79.70
2017-10-17T00:56:25.705Z,79.40
2017-10-17T00:58:53.218Z,79.00
2017-10-17T01:01:20.776Z,78.70
2017-10-17T01:03:48.311Z,78.50
2017-10-17T01:06:16.605Z,78.00
2017-10-17T01:08:44.138Z,78.00
2017-10-17T01:11:12.496Z,78.40
2017-10-17T01:13:40.041Z,78.50
2017-10-17T01:16:07.549Z,78.70
2017-10-17T01:18:35.057Z,78.90
2017-10-17T01:21:03.372Z,78.50
2017-10-17T01:23:34.464Z,78.20
2017-10-17T01:26:09.659Z,78.00
2017-10-17T01:28:37.174Z,78.00
2017-10-17T01:31:04.677Z,78.00
2017-10-17T01:33:32.244Z,78.10
2017-10-17T01:35:59.776Z,78.20
2017-10-17T01:38:31.005Z,78.50
2017-10-17T01:40:59.288Z,78.60
2017-10-17T01:43:28.407Z,78.10
2017-10-17T01:45:56.689Z,78.00
2017-10-17T01:48:25.781Z,77.80
2017-10-17T01:50:54.106Z,77.60
2017-10-17T01:53:24.110Z,77.40
2017-10-17T01:55:51.617Z,77.80
2017-10-17T01:58:23.716Z,78.10
2017-10-17T02:00:51.279Z,78.00
2017-10-17T02:03:18.817Z,79.10
2017-10-17T02:05:46.345Z,78.90
2017-10-17T02:08:14.623Z,79.10
2017-10-17T02:11:01.681Z,79.10
2017-10-17T02:13:29.193Z,79.10
2017-10-17T02:15:57.516Z,78.80
2017-10-17T02:18:26.938Z,78.80
2017-10-17T02:20:58.087Z,78.30
2017-10-17T02:23:28.536Z,79.20
2017-10-17T02:26:02.548Z,79.00
2017-10-17T02:28:44.541Z,79.20
2017-10-17T02:31:12.826Z,79.40
2017-10-17T02:33:43.756Z,79.40
2017-10-17T02:36:12.041Z,80.80
2017-10-17T02:38:39.650Z,80.60
2017-10-17T02:41:07.181Z,80.60
2017-10-17T02:43:39.332Z,80.30
2017-10-17T02:46:06.840Z,80.00
2017-10-17T02:48:47.834Z,79.70
2017-10-17T02:51:15.441Z,79.90
2017-10-17T02:53:42.936Z,79.40
2017-10-17T02:56:10.469Z,79.20
2017-10-17T02:58:37.979Z,79.60
2017-10-17T03:01:08.925Z,80.60
2017-10-17T03:03:38.931Z,79.70
2017-10-17T03:06:07.353Z,79.70
2017-10-17T03:08:34.899Z,79.30
2017-10-17T03:11:02.400Z,79.70
2017-10-17T03:13:32.814Z,80.30
2017-10-17T03:16:01.157Z,81.20
2017-10-17T03:18:29.601Z,81.50
2017-10-17T03:21:00.628Z,80.90
2017-10-17T03:23:28.135Z,80.90
2017-10-17T03:25:55.664Z,80.80
2017-10-17T03:28:24.740Z,80.10
2017-10-17T03:30:53.901Z,80.10
2017-10-17T03:33:31.320Z,81.10
2017-10-17T03:38:54.172Z,81.10
2017-10-17T03:41:38.541Z,81.10
2017-10-17T03:47:32.221Z,80.60
2017-10-17T03:50:00.679Z,81.20
2017-10-17T03:52:31.668Z,80.60
2017-10-17T03:54:59.932Z,79.70
2017-10-17T03:57:30.367Z,79.70
2017-10-17T03:59:59.617Z,78.90
2017-10-17T04:02:27.129Z,79.00
2017-10-17T04:05:14.865Z,79.80
2017-10-17T04:07:50.876Z,79.40
2017-10-17T04:10:29.117Z,79.20
2017-10-17T04:13:05.929Z,78.80
2017-10-17T04:15:33.479Z,78.70
2017-10-17T04:18:03.656Z,79.30
2017-10-17T04:20:40.840Z,79.40
2017-10-17T04:23:30.944Z,79.20
2017-10-17T04:29:18.857Z,80.40
2017-10-17T04:31:47.160Z,80.40
2017-10-17T04:34:22.159Z,80.50
2017-10-17T04:37:00.475Z,80.60
2017-10-17T04:39:28.035Z,80.50
2017-10-17T04:48:20.622Z,80.70
2017-10-17T04:54:09.511Z,80.20
2017-10-17T04:56:37.018Z,80.60
2017-10-17T04:59:15.309Z,81.20
2017-10-17T05:01:45.076Z,81.00
2017-10-17T05:04:23.306Z,81.00
2017-10-17T05:06:52.412Z,81.20
2017-10-17T05:09:27.113Z,81.40
2017-10-17T05:11:54.648Z,81.30
2017-10-17T05:14:28.005Z,81.50
2017-10-17T05:16:56.277Z,81.50
2017-10-17T05:22:39.761Z,82.40
2017-10-17T05:25:12.124Z,82.60
2017-10-17T05:30:54.545Z,81.70
2017-10-17T05:36:32.130Z,81.70
2017-10-17T05:39:00.399Z,82.10
2017-10-17T05:41:28.710Z,82.30
2017-10-17T05:46:55.854Z,82.20
2017-10-17T05:49:29.659Z,82.20
2017-10-17T05:51:57.934Z,82.10
2017-10-17T05:54:25.457Z,82.10
2017-10-17T05:56:52.968Z,82.10
2017-10-17T05:59:20.509Z,82.10
2017-10-17T06:01:48.773Z,81.70
2017-10-17T06:04:17.069Z,81.40
2017-10-17T06:06:44.575Z,81.40
2017-10-17T06:09:12.070Z,81.00
2017-10-17T06:11:40.370Z,80.80
2017-10-17T06:16:53.780Z,81.20
2017-10-17T06:19:21.291Z,81.20
2017-10-17T06:21:49.589Z,81.40
2017-10-17T06:24:17.111Z,81.30
2017-10-17T06:26:44.703Z,81.40
2017-10-17T06:29:12.232Z,81.60
2017-10-17T06:31:39.737Z,81.70
2017-10-17T06:34:07.258Z,81.80
2017-10-17T06:36:35.548Z,82.10
2017-10-17T06:39:03.818Z,82.30
2017-10-17T06:41:32.074Z,82.30
2017-10-17T06:43:59.612Z,82.30
2017-10-17T06:46:27.105Z,82.20
2017-10-17T06:48:55.394Z,82.50
2017-10-17T06:51:22.926Z,82.40
2017-10-17T06:53:51.225Z,82.50
2017-10-17T06:56:18.742Z,82.30
2017-10-17T06:58:46.244Z,82.50
2017-10-17T07:01:13.764Z,82.60
2017-10-17T07:03:41.260Z,82.60
2017-10-17T07:06:08.830Z,82.50
2017-10-17T07:08:36.335Z,82.50
2017-10-17T07:11:03.852Z,82.40
2017-10-17T07:13:31.352Z,82.10
2017-10-17T07:15:59.008Z,81.70
2017-10-17T07:18:26.510Z,81.80
2017-10-17T07:20:54.004Z,81.70
2017-10-17T07:23:21.541Z,81.50
2017-10-17T07:25:49.045Z,81.40
2017-10-17T07:28:16.546Z,81.20
2017-10-17T07:30:44.074Z,81.20
2017-10-17T07:33:12.380Z,80.50
2017-10-17T07:35:39.929Z,80.50
2017-10-17T07:38:07.442Z,80.80
2017-10-17T07:40:34.975Z,80.20
2017-10-17T07:43:02.483Z,80.30
2017-10-17T07:45:30.774Z,80.20
2017-10-17T07:47:58.335Z,81.00
2017-10-17T07:50:25.858Z,80.00
2017-10-17T07:52:53.372Z,79.70
2017-10-17T07:55:20.929Z,79.20
2017-10-17T07:57:48.443Z,79.30
2017-10-17T08:00:16.716Z,78.30
2017-10-17T08:02:44.997Z,78.70
2017-10-17T08:05:13.285Z,77.80
2017-10-17T08:07:41.557Z,77.90
2017-10-17T08:10:09.837Z,77.10
2017-10-17T08:12:38.098Z,76.50
2017-10-17T08:15:06.387Z,76.30
2017-10-17T08:17:34.680Z,76.40
2017-10-17T08:20:02.201Z,76.40
2017-10-17T08:22:30.495Z,76.80
2017-10-17T08:24:58.012Z,76.70
2017-10-17T08:27:25.540Z,75.80
2017-10-17T08:29:53.044Z,75.40
2017-10-17T08:32:20.640Z,75.00
2017-10-17T08:34:48.142Z,74.70
2017-10-17T08:37:15.670Z,74.00
2017-10-17T08:39:43.178Z,73.90
2017-10-17T08:42:10.771Z,73.70
2017-10-17T08:44:38.285Z,73.20
2017-10-17T08:47:05.888Z,72.10
2017-10-17T08:49:33.416Z,70.70
2017-10-17T08:52:01.684Z,69.80
2017-10-17T08:54:29.208Z,69.70
2017-10-17T08:56:56.760Z,69.90
2017-10-17T08:59:24.304Z,69.40
2017-10-17T09:01:51.823Z,68.60
2017-10-17T09:04:20.094Z,67.50
2017-10-17T09:06:47.688Z,67.40
2017-10-17T09:09:15.182Z,66.80
2017-10-17T09:11:42.700Z,66.30
2017-10-17T09:14:10.207Z,66.00
2017-10-17T09:16:37.733Z,65.30
2017-10-17T09:19:05.253Z,64.60
2017-10-17T09:21:33.523Z,63.60
2017-10-17T09:24:01.814Z,63.30
2017-10-17T09:26:29.322Z,63.30
2017-10-17T09:28:56.829Z,63.40
2017-10-17T09:31:24.349Z,62.70
2017-10-17T09:33:52.632Z,62.70
2017-10-17T09:36:20.161Z,62.70
2017-10-17T09:38:47.661Z,62.30
2017-10-17T09:41:15.931Z,62.10
2017-10-17T09:43:44.239Z,61.80
2017-10-17T09:46:11.759Z,61.70
2017-10-17T09:48:39.255Z,60.70
2017-10-17T09:51:06.781Z,60.90
2017-10-17T09:53:35.075Z,59.80
2017-10-17T09:56:02.568Z,59.80
2017-10-17T09:58:30.090Z,59.40
2017-10-17T10:00:58.372Z,59.40
2017-10-17T10:03:26.434Z,59.40
2017-10-17T10:05:54.702Z,59.10
2017-10-17T10:08:22.977Z,58.40
2017-10-17T10:10:51.285Z,58.50
2017-10-17T10:13:18.788Z,58.50
2017-10-17T10:15:46.297Z,58.40
2017-10-17T10:18:13.800Z,58.30
2017-10-17T10:20:41.321Z,57.40
2017-10-17T10:23:08.822Z,57.00
2017-10-17T10:25:36.344Z,56.50
2017-10-17T10:28:03.858Z,55.80
2017-10-17T10:30:32.134Z,55.80
2017-10-17T10:33:00.416Z,55.80
2017-10-17T10:35:28.688Z,55.30
2017-10-17T10:37:56.959Z,55.00
2017-10-17T10:40:24.528Z,55.00
2017-10-17T10:42:52.057Z,55.40
2017-10-17T10:45:20.358Z,54.20
2017-10-17T10:47:47.858Z,54.20
2017-10-17T10:50:15.386Z,53.40
2017-10-17T10:52:42.893Z,53.80
2017-10-17T10:55:10.425Z,53.20
2017-10-17T10:57:37.933Z,52.10
2017-10-17T11:00:06.208Z,50.70
2017-10-17T11:02:34.506Z,51.00
2017-10-17T11:05:02.004Z,51.00
2017-10-17T11:07:29.530Z,51.20
2017-10-17T11:09:57.077Z,49.40
2017-10-17T11:12:24.588Z,48.80
2017-10-17T11:14:52.094Z,48.30
2017-10-17T11:17:19.628Z,48.20
2017-10-17T11:19:47.916Z,47.70
2017-10-17T11:22:15.421Z,47.70
2017-10-17T11:24:42.952Z,47.60
2017-10-17T11:27:10.458Z,47.20
2017-10-17T11:29:37.977Z,47.60
2017-10-17T11:32:05.478Z,45.80
2017-10-17T11:34:33.027Z,46.20
2017-10-17T11:37:00.524Z,47.00
2017-10-17T11:39:28.062Z,46.40
2017-10-17T11:42:08.139Z,45.00
2017-10-17T11:44:35.679Z,44.90
2017-10-17T11:47:03.210Z,44.50
2017-10-17T11:49:30.743Z,44.80
2017-10-17T11:51:58.268Z,45.00
2017-10-17T11:54:25.773Z,45.40
2017-10-17T11:56:53.352Z,45.20
2017-10-17T11:59:21.617Z,44.90
2017-10-17T12:01:49.128Z,44.70
2017-10-17T12:04:16.652Z,44.10
2017-10-17T12:06:44.928Z,43.90
2017-10-17T12:09:13.208Z,42.50
2017-10-17T12:11:41.484Z,42.40
2017-10-17T12:14:09.780Z,41.80
2017-10-17T12:16:37.297Z,41.80
2017-10-17T12:19:04.810Z,42.00
2017-10-17T12:21:32.305Z,41.90
2017-10-17T12:23:59.832Z,41.30
2017-10-17T12:26:27.343Z,40.40
2017-10-17T12:28:54.846Z,40.20
2017-10-17T12:31:22.367Z,40.50
2017-10-17T12:33:49.888Z,40.00
2017-10-17T12:36:17.380Z,39.10
2017-10-17T12:38:44.917Z,39.10
2017-10-17T12:41:12.431Z,38.60
2017-10-17T12:43:39.956Z,38.70
2017-10-17T12:46:07.489Z,38.60
2017-10-17T12:48:34.997Z,39.30
2017-10-17T12:51:02.534Z,38.80
2017-10-17T12:53:30.033Z,37.60
2017-10-17T12:55:57.522Z,37.90
2017-10-17T12:58:25.816Z,36.50
2017-10-17T13:00:53.373Z,35.90
2017-10-17T13:03:21.672Z,36.30
2017-10-17T13:05:49.182Z,36.20
2017-10-17T13:08:17.473Z,36.10
2017-10-17T13:10:45.777Z,35.90
2017-10-17T13:13:13.301Z,35.90
2017-10-17T13:15:41.569Z,33.70
2017-10-17T13:18:09.080Z,33.60
2017-10-17T13:20:36.611Z,33.50
2017-10-17T13:23:04.129Z,32.20
2017-10-17T13:25:31.687Z,32.90
2017-10-17T13:27:59.187Z,31.30
2017-10-17T13:30:26.725Z,31.20
2017-10-17T13:32:55.025Z,30.30
2017-10-17T13:35:22.550Z,30.20
2017-10-17T13:37:50.081Z,29.70
2017-10-17T13:40:17.590Z,30.30
2017-10-17T13:42:45.113Z,30.20
2017-10-17T13:45:12.600Z,30.00
2017-10-17T13:47:40.945Z,29.80
2017-10-17T13:50:08.444Z,29.80
2017-10-17T13:52:35.969Z,30.00
2017-10-17T13:55:03.473Z,31.90
2017-10-17T13:57:31.039Z,32.20
2017-10-17T13:59:58.566Z,31.70
2017-10-17T14:02:26.863Z,32.60
2017-10-17T14:04:54.393Z,32.60
2017-10-17T14:07:22.686Z,33.50
2017-10-17T14:09:50.213Z,33.50
2017-10-17T14:12:17.718Z,35.60
2017-10-17T14:14:45.238Z,35.70
2017-10-17T14:17:13.517Z,35.70
2017-10-17T14:19:41.830Z,36.40
2017-10-17T14:22:09.358Z,36.30
2017-10-17T14:24:36.937Z,37.10
2017-10-17T14:27:04.453Z,37.00
2017-10-17T14:29:32.727Z,39.40
2017-10-17T14:32:01.021Z,40.00
2017-10-17T14:34:29.298Z,40.30
2017-10-17T14:36:57.574Z,40.20
2017-10-17T14:39:25.864Z,40.70
2017-10-17T14:41:53.364Z,40.60
2017-10-17T14:44:20.931Z,42.00
2017-10-17T14:46:48.419Z,42.10
2017-10-17T14:49:16.676Z,42.80
2017-10-17T14:51:44.992Z,43.00
2017-10-17T14:54:12.500Z,43.00
2017-10-17T14:56:39.994Z,43.80
2017-10-17T14:59:07.573Z,43.70
2017-10-17T15:01:35.069Z,43.60
2017-10-17T15:04:02.595Z,44.20
2017-10-17T15:06:30.086Z,45.00
2017-10-17T15:08:57.597Z,45.20
2017-10-17T15:11:25.133Z,44.70
2017-10-17T15:13:53.400Z,45.20
2017-10-17T15:16:21.698Z,45.60
2017-10-17T15:18:49.203Z,45.60
2017-10-17T15:21:16.739Z,45.70
2017-10-17T15:23:44.249Z,46.20
2017-10-17T15:26:12.537Z,46.90
2017-10-17T15:28:40.042Z,46.80
2017-10-17T15:31:07.565Z,46.90
2017-10-17T15:33:35.096Z,47.20
2017-10-17T15:36:03.369Z,47.30
2017-10-17T15:38:31.651Z,47.40
2017-10-17T15:40:59.930Z,47.50
2017-10-17T15:43:27.457Z,47.50
2017-10-17T15:45:54.985Z,48.10
2017-10-17T15:48:22.704Z,48.20
2017-10-17T15:50:50.983Z,48.90
2017-10-17T15:53:19.278Z,49.10
2017-10-17T15:55:46.816Z,49.10
2017-10-17T15:58:15.094Z,50.00
2017-10-17T16:00:43.366Z,50.40
2017-10-17T16:03:11.665Z,50.70
2017-10-17T16:05:39.175Z,50.60
2017-10-17T16:08:06.688Z,51.20
2017-10-17T16:10:34.184Z,51.90
2017-10-17T16:13:01.708Z,52.40
2017-10-17T16:15:29.218Z,52.80
2017-10-17T16:17:57.509Z,53.90
2017-10-17T16:20:25.765Z,54.60
2017-10-17T16:22:54.069Z,54.60
2017-10-17T16:25:21.615Z,55.10
2017-10-17T16:27:50.012Z,56.10
2017-10-17T16:30:17.514Z,56.00
2017-10-17T16:32:45.016Z,56.70
2017-10-17T16:35:12.554Z,56.60
2017-10-17T16:37:40.880Z,57.90
2017-10-17T16:40:08.415Z,57.90
2017-10-17T16:42:35.996Z,58.30
2017-10-17T16:45:03.559Z,58.30
2017-10-17T16:47:31.069Z,58.30
2017-10-17T16:49:59.352Z,59.00
2017-10-17T16:52:26.901Z,59.00
2017-10-17T16:54:55.193Z,60.20
2017-10-17T16:57:22.731Z,60.20
2017-10-17T16:59:50.260Z,60.70
2017-10-17T17:02:17.799Z,61.00
2017-10-17T17:04:45.310Z,61.30
2017-10-17T17:07:12.883Z,61.60
2017-10-17T17:09:40.428Z,61.90
2017-10-17T17:12:08.714Z,62.30
2017-10-17T17:14:36.238Z,62.30
2017-10-17T17:17:03.792Z,62.70
2017-10-17T17:19:31.336Z,62.90
2017-10-17T17:21:58.905Z,63.00
2017-10-17T17:24:26.408Z,63.10
2017-10-17T17:26:53.930Z,63.30
2017-10-17T17:29:21.465Z,63.50
2017-10-17T17:31:48.979Z,63.70
2017-10-17T17:34:16.494Z,64.40
2017-10-17T17:36:44.039Z,64.50
2017-10-17T17:39:11.546Z,65.00
2017-10-17T17:41:39.102Z,65.20
2017-10-17T17:44:06.623Z,65.60
2017-10-17T17:46:34.168Z,65.90
2017-10-17T17:49:01.704Z,65.90
2017-10-17T17:51:29.228Z,65.90
2017-10-17T17:53:57.512Z,66.20
2017-10-17T17:56:25.022Z,66.10
2017-10-17T17:58:52.546Z,66.40
2017-10-17T18:01:20.072Z,66.50
2017-10-17T18:03:48.384Z,66.70
2017-10-17T18:06:15.890Z,66.70
2017-10-17T18:08:43.450Z,66.80
2017-10-17T18:11:10.970Z,67.40
2017-10-17T18:13:38.522Z,67.70
2017-10-17T18:16:06.068Z,68.00
2017-10-17T18:18:33.601Z,67.90
2017-10-17T18:21:01.894Z,68.30
2017-10-17T18:23:29.441Z,68.20
2017-10-17T18:25:57.724Z,68.40
2017-10-17T18:28:25.269Z,68.40
2017-10-17T18:30:53.545Z,68.80
2017-10-17T18:33:21.855Z,68.90
2017-10-17T18:35:49.397Z,68.80
2017-10-17T18:38:16.934Z,69.00
2017-10-17T18:40:46.199Z,69.10
2017-10-17T18:43:13.724Z,69.10
2017-10-17T18:45:41.276Z,69.10
2017-10-17T18:48:08.800Z,69.30
2017-10-17T18:50:37.121Z,69.60
2017-10-17T18:53:04.654Z,69.60
2017-10-17T18:55:32.212Z,69.60
2017-10-17T18:57:59.736Z,69.90
2017-10-17T19:00:27.295Z,70.10
2017-10-17T19:02:54.800Z,70.50
2017-10-17T19:05:22.320Z,70.70
2017-10-17T19:07:50.636Z,70.80
2017-10-17T19:10:18.152Z,70.80
2017-10-17T19:12:46.471Z,70.70
2017-10-17T19:15:13.983Z,70.60
2017-10-17T19:17:41.525Z,70.50
2017-10-17T19:20:09.081Z,71.00
2017-10-17T19:22:37.420Z,71.20
2017-10-17T19:25:04.979Z,71.30
2017-10-17T19:27:32.515Z,71.20
2017-10-17T19:30:00.838Z,71.20
2017-10-17T19:32:28.368Z,71.20
2017-10-17T19:34:57.237Z,71.40
2017-10-17T19:37:25.509Z,71.50
2017-10-17T19:39:54.022Z,71.50
2017-10-17T19:42:21.552Z,71.50
2017-10-17T19:44:49.823Z,71.90
2017-10-17T19:47:18.137Z,71.90
2017-10-17T19:49:45.701Z,71.90
2017-10-17T19:52:13.222Z,71.90
2017-10-17T19:54:40.757Z,72.10
2017-10-17T19:57:08.295Z,71.90
2017-10-17T19:59:35.825Z,72.30
2017-10-17T20:02:03.358Z,72.20
2017-10-17T20:04:31.102Z,72.60
2017-10-17T20:06:59.397Z,72.40
2017-10-17T20:09:26.940Z,72.40
2017-10-17T20:11:55.254Z,72.30
2017-10-17T20:14:22.778Z,72.30
2017-10-17T20:16:51.084Z,72.40
2017-10-17T20:19:18.601Z,72.20
2017-10-17T20:21:46.920Z,72.60
2017-10-17T20:24:14.447Z,72.60
2017-10-17T20:26:41.984Z,73.20
2017-10-17T20:29:09.527Z,73.40
2017-10-17T20:31:37.057Z,74.50
2017-10-17T20:34:04.592Z,74.20
2017-10-17T20:36:32.101Z,74.30
2017-10-17T20:38:59.632Z,74.80
2017-10-17T20:41:27.155Z,74.40
2017-10-17T20:43:54.722Z,74.20
2017-10-17T20:46:22.245Z,73.90
2017-10-17T20:48:49.772Z,73.70
2017-10-17T20:51:17.301Z,73.70
2017-10-17T20:53:44.824Z,74.20
2017-10-17T20:56:13.129Z,74.70
2017-10-17T20:58:40.666Z,74.70
2017-10-17T21:01:08.953Z,74.60
2017-10-17T21:03:36.472Z,74.60
2017-10-17T21:06:03.986Z,74.60
2017-10-17T21:08:31.543Z,75.50
2017-10-17T21:10:59.059Z,75.20
2017-10-17T21:13:26.605Z,75.60
2017-10-17T21:15:54.125Z,76.20
2017-10-17T21:18:21.654Z,75.70
2017-10-17T21:20:49.944Z,76.20
2017-10-17T21:23:17.464Z,76.20
2017-10-17T21:25:45.065Z,76.10
2017-10-17T21:28:12.571Z,75.70
2017-10-17T21:30:40.100Z,75.60
2017-10-17T21:33:07.621Z,75.40
2017-10-17T21:35:35.907Z,75.80
2017-10-17T21:38:03.416Z,76.50
2017-10-17T21:40:30.946Z,75.60
2017-10-17T21:42:58.458Z,75.50
2017-10-17T21:45:26.757Z,75.30
2017-10-17T21:47:54.268Z,75.20
2017-10-17T21:50:22.614Z,74.90
2017-10-17T21:52:50.154Z,74.90
2017-10-17T21:55:17.660Z,75.40
2017-10-17T21:57:45.183Z,76.20
2017-10-17T22:00:12.684Z,76.30
2017-10-17T22:02:40.974Z,76.90
2017-10-17T22:05:09.277Z,76.00
2017-10-17T22:07:36.780Z,75.90
2017-10-17T22:10:05.089Z,77.20
2017-10-17T22:12:32.601Z,76.40
2017-10-17T22:15:00.130Z,76.50
2017-10-17T22:17:27.647Z,76.20
2017-10-17T22:19:55.175Z,76.60
2017-10-17T22:22:22.936Z,77.00
2017-10-17T22:24:50.438Z,77.20
2017-10-17T22:27:18.734Z,77.10
2017-10-17T22:29:46.247Z,77.10
2017-10-17T22:32:13.775Z,77.10
2017-10-17T22:34:41.283Z,77.60
2017-10-17T22:37:09.559Z,76.60
2017-10-17T22:39:37.847Z,77.00
2017-10-17T22:42:05.365Z,76.90
2017-10-17T22:44:34.415Z,77.00
2017-10-17T22:47:01.920Z,76.80
2017-10-17T22:49:29.574Z,76.70
2017-10-17T22:51:57.107Z,77.50
2017-10-17T22:54:24.630Z,77.70
2017-10-17T22:56:52.928Z,76.90
2017-10-17T22:59:20.482Z,76.90
2017-10-17T23:01:48.069Z,76.90
2017-10-17T23:04:15.612Z,76.50
2017-10-17T23:06:43.101Z,76.40
2017-10-17T23:09:10.632Z,76.10
2017-10-17T23:11:38.146Z,76.30
2017-10-17T23:14:06.437Z,77.00
2017-10-17T23:16:34.012Z,77.00
2017-10-17T23:19:13.297Z,77.10
2017-10-17T23:21:40.825Z,77.20
2017-10-17T23:24:08.364Z,77.70
2017-10-17T23:26:35.860Z,77.80
2017-10-17T23:29:03.385Z,77.50
2017-10-17T23:31:30.925Z,77.50
2017-10-17T23:33:58.428Z,77.60
2017-10-17T23:36:25.957Z,77.20
2017-10-17T23:38:53.461Z,77.10
2017-10-17T23:41:20.996Z,77.00
2017-10-17T23:43:48.495Z,77.00
2017-10-17T23:46:16.002Z,76.90
2017-10-17T23:48:43.533Z,76.80
2017-10-17T23:51:11.056Z,77.00
2017-10-17T23:53:39.353Z,77.00
2017-10-17T23:56:06.849Z,76.90
2017-10-17T23:58:34.364Z,76.80
